Last 24 Hours

Coyote Canyon

10 Minute Data | America/Los_Angeles
as of 9/1/26 12:57 PM PDT
Date & Time Temp (°F) Dew Pt (°F) RH (%) Wind Spd (mph) Wind Dir (°) Wind Gust (mph) Wind Gst Dir (°) Daily Max Temp (°F) Daily Min Temp (°F)
9/1/26 - 1250 78.0 38.3 24 14.5 W | 273 26.3 WNW | 292 79.4 63.2
9/1/26 - 1240 78.3 37.8 23 14.4 WSW | 256 24.6 W | 270 79.4 63.2
9/1/26 - 1230 78.3 38.1 24 11.9 W | 276 20.0 WSW | 257 79.4 63.2
9/1/26 - 1220 77.9 37.2 23 15.3 NW | 305 24.4 NW | 315 79.4 63.2
9/1/26 - 1210 77.9 37.7 23 13.3 W | 276 20.7 WSW | 258 79.4 63.2
9/1/26 - 1200 78.5 38.0 23 12.7 W | 268 24.3 NW | 307 79.4 63.2
9/1/26 - 1150 77.4 37.7 24 10.8 WNW | 287 17.8 WNW | 282 79.0 63.2
9/1/26 - 1140 77.8 38.3 24 12.6 W | 262 22.1 W | 267 79.0 63.2
9/1/26 - 1130 76.9 38.7 25 14.8 W | 280 25.3 WNW | 293 78.0 63.2
9/1/26 - 1120 76.5 37.4 24 12.4 WNW | 289 18.6 W | 279 77.7 63.2
9/1/26 - 1110 76.8 37.7 24 14.0 W | 273 23.8 WSW | 250 77.7 63.2
9/1/26 - 1100 75.4 36.6 24 12.8 WNW | 286 24.1 WNW | 283 76.2 63.2
9/1/26 - 1050 75.4 35.6 23 13.5 WNW | 285 22.6 W | 274 76.2 63.2
9/1/26 - 1040 75.2 32.6 21 14.5 WNW | 290 22.9 WNW | 285 75.4 63.2
9/1/26 - 1030 74.8 31.1 20 13.2 WNW | 300 20.2 WNW | 293 75.3 63.2
9/1/26 - 1020 74.3 32.2 21 15.6 WNW | 298 24.8 WNW | 286 74.8 63.2
9/1/26 - 1010 74.0 31.4 21 14.0 WNW | 299 24.0 WNW | 294 74.8 63.2
9/1/26 - 1000 73.5 28.8 19 15.2 WNW | 299 22.3 NW | 309 73.9 63.2
9/1/26 - 0950 73.0 29.0 19 17.4 WNW | 294 24.4 NW | 307 73.6 63.2
9/1/26 - 0940 73.2 28.7 19 16.0 WNW | 298 23.4 W | 281 73.6 63.2
9/1/26 - 0930 72.7 27.2 18 15.0 NW | 309 22.9 NW | 309 73.2 63.2
9/1/26 - 0920 72.1 26.4 18 14.7 NW | 312 23.2 NW | 312 72.5 63.2
9/1/26 - 0910 71.5 26.1 18 13.7 NW | 315 19.4 NW | 308 71.9 63.2
9/1/26 - 0900 70.9 25.4 18 12.3 NW | 310 18.5 WNW | 299 71.3 63.2
9/1/26 - 0850 70.3 24.5 18 11.8 NW | 307 17.0 NW | 306 70.6 63.2
9/1/26 - 0840 70.1 23.6 17 11.8 NW | 307 16.9 WNW | 299 70.5 63.2
9/1/26 - 0830 69.6 22.8 17 12.4 NW | 310 18.6 NW | 310 69.9 63.2
9/1/26 - 0820 69.2 23.8 18 11.0 NW | 308 17.1 WNW | 299 69.5 63.2
9/1/26 - 0810 68.9 25.8 20 12.4 NW | 306 18.0 WNW | 303 69.0 63.2
9/1/26 - 0800 68.0 28.8 23 9.0 NW | 309 14.9 NW | 313 68.6 63.2
9/1/26 - 0750 67.4 29.0 24 8.9 NW | 309 13.2 WNW | 302 67.8 63.2
9/1/26 - 0740 66.6 28.6 24 8.8 NW | 313 10.5 NW | 313 66.9 63.2
9/1/26 - 0730 66.2 28.3 24 8.9 NW | 311 10.4 NW | 312 66.9 63.2
9/1/26 - 0720 65.8 28.5 24 8.9 NW | 311 10.6 NW | 307 66.9 63.2
9/1/26 - 0710 65.4 28.3 25 9.6 NW | 317 10.7 NW | 320 66.9 63.2
9/1/26 - 0700 65.4 27.3 24 8.5 NW | 319 10.3 NW | 317 66.9 63.2
9/1/26 - 0650 66.1 27.6 23 8.7 NW | 317 9.7 NW | 311 66.9 63.2
9/1/26 - 0640 66.0 28.2 24 8.2 NW | 325 9.5 NNW | 335 66.9 63.2
9/1/26 - 0630 66.0 26.9 23 7.6 NNW | 335 8.9 NNW | 337 66.9 63.2
9/1/26 - 0620 66.0 25.6 22 7.1 NNW | 332 8.0 NNW | 341 66.9 63.2
9/1/26 - 0610 65.0 25.8 22 7.2 NW | 319 8.0 NW | 311 66.9 63.2
9/1/26 - 0600 64.3 26.8 24 7.9 NW | 307 9.1 NW | 308 66.9 63.2
9/1/26 - 0550 63.9 27.0 25 8.4 NW | 307 9.8 WNW | 301 66.9 63.2
9/1/26 - 0540 63.4 27.0 25 7.6 NW | 305 9.4 NW | 307 66.9 63.2
9/1/26 - 0530 64.0 27.4 25 8.4 NW | 304 10.4 WNW | 295 66.9 63.2
9/1/26 - 0520 64.3 28.6 26 8.0 WNW | 302 9.9 WNW | 302 66.9 63.2
9/1/26 - 0510 64.5 29.0 26 9.1 WNW | 301 10.0 NW | 307 66.9 63.2
9/1/26 - 0500 64.4 29.6 27 8.1 WNW | 303 9.8 WNW | 302 66.9 63.2
9/1/26 - 0450 64.4 28.9 26 9.4 WNW | 302 10.9 WNW | 301 66.9 63.2
9/1/26 - 0440 65.7 26.1 22 8.6 NW | 306 10.5 WNW | 302 66.9 63.2
9/1/26 - 0430 66.5 26.4 22 9.0 NW | 309 10.0 NW | 310 66.9 63.2
9/1/26 - 0420 65.8 27.3 23 8.4 NW | 309 9.8 NW | 310 66.2 63.2
9/1/26 - 0410 65.8 28.0 24 8.9 NW | 310 10.2 NW | 306 66.1 63.2
9/1/26 - 0400 65.4 28.0 24 8.6 NW | 314 9.9 NW | 313 66.1 63.2
9/1/26 - 0350 65.2 28.8 25 7.0 NW | 315 9.3 NW | 317 65.6 63.2
9/1/26 - 0340 65.5 29.4 26 7.5 NW | 317 8.8 NW | 315 65.6 63.2
9/1/26 - 0330 65.3 29.4 26 8.2 NW | 315 8.8 NW | 314 65.6 63.2
9/1/26 - 0320 65.5 30.4 27 7.6 NW | 309 8.0 NW | 305 65.6 63.2
9/1/26 - 0310 65.2 29.9 26 7.4 WNW | 302 7.9 NW | 304 65.4 63.2
9/1/26 - 0300 65.0 29.6 26 7.0 WNW | 301 7.8 WNW | 299 65.4 63.2
9/1/26 - 0250 64.6 30.0 27 6.5 NW | 305 8.0 NW | 304 65.3 63.2
9/1/26 - 0240 63.8 30.4 28 6.8 NW | 306 8.0 NW | 316 65.3 63.2
9/1/26 - 0230 63.4 31.2 30 7.2 WNW | 303 9.6 WNW | 292 65.3 63.2
9/1/26 - 0220 63.9 31.6 30 8.3 WNW | 299 10.7 WNW | 301 65.3 63.6
9/1/26 - 0210 64.4 31.6 29 9.5 WNW | 301 12.0 WNW | 302 65.3 63.7
9/1/26 - 0200 64.2 31.2 29 10.3 NW | 308 13.2 NW | 306 65.3 63.7
9/1/26 - 0150 63.9 31.2 29 10.9 NW | 311 13.7 NW | 307 65.3 63.7
9/1/26 - 0140 64.5 30.8 28 12.0 NW | 312 16.3 NW | 309 65.3 63.7
9/1/26 - 0130 64.8 31.2 28 13.7 NW | 316 18.5 NW | 316 65.3 63.7
9/1/26 - 0120 64.2 31.8 30 13.1 NW | 316 17.4 NW | 313 64.6 63.7
9/1/26 - 0110 63.9 31.8 30 12.4 NW | 315 15.6 NW | 317 64.1 63.7
9/1/26 - 0100 63.7 31.7 30 11.9 NW | 306 15.9 NW | 305 84.4 62.4
9/1/26 - 0050 63.0 31.4 30 12.1 WNW | 301 16.4 WNW | 300 84.4 62.4
9/1/26 - 0040 62.6 31.2 30 13.5 WNW | 296 16.7 WNW | 299 84.4 62.4
9/1/26 - 0030 62.9 31.3 30 12.4 WNW | 300 16.4 WNW | 297 84.4 62.4
9/1/26 - 0020 63.5 32.1 31 12.6 NW | 304 16.3 NW | 307 84.4 62.8
9/1/26 - 0010 63.6 32.4 31 13.7 WNW | 303 17.9 WNW | 291 84.4 62.8
9/1/26 - 0000 63.9 32.3 31 14.9 WNW | 299 18.2 WNW | 297 84.4 62.8
8/31/26 - 2350 64.6 32.5 30 14.9 WNW | 300 17.8 WNW | 297 84.4 62.8
8/31/26 - 2340 64.9 32.7 30 15.2 WNW | 298 18.2 WNW | 298 84.4 62.8
8/31/26 - 2330 66.1 33.2 29 15.4 WNW | 296 18.4 WNW | 292 84.4 62.8
8/31/26 - 2320 66.5 32.7 28 13.6 WNW | 293 16.1 WNW | 289 84.4 62.8
8/31/26 - 2310 67.9 29.9 24 12.7 WNW | 302 14.8 NW | 304 84.4 62.8
8/31/26 - 2300 68.6 29.2 23 13.2 NW | 308 16.5 NW | 308 84.4 62.8
8/31/26 - 2250 68.5 29.9 24 13.2 NW | 310 17.2 NW | 316 84.4 62.8
8/31/26 - 2240 68.8 31.8 25 12.8 NW | 313 15.9 NW | 317 84.4 62.8
8/31/26 - 2230 68.5 33.6 27 13.7 NW | 314 16.8 NW | 318 84.4 62.8
8/31/26 - 2220 67.1 34.0 29 12.8 NW | 308 14.5 NW | 305 84.4 62.8
8/31/26 - 2210 67.0 34.6 30 13.0 WNW | 300 15.4 WNW | 296 84.4 62.8
8/31/26 - 2200 67.6 34.6 29 13.4 WNW | 298 15.9 WNW | 298 84.4 62.8
8/31/26 - 2150 67.9 35.0 30 13.3 WNW | 300 15.2 WNW | 298 84.4 62.8
8/31/26 - 2140 67.7 35.2 30 12.8 WNW | 300 15.3 WNW | 296 84.4 62.8
8/31/26 - 2130 67.5 34.8 30 11.7 WNW | 303 14.7 WNW | 303 84.4 62.8
8/31/26 - 2120 67.6 34.2 29 11.0 WNW | 303 13.9 WNW | 300 84.4 62.8
8/31/26 - 2110 68.0 33.2 27 11.2 NW | 310 14.7 NW | 307 84.4 62.8
8/31/26 - 2100 67.9 32.1 26 9.2 NW | 315 12.4 NW | 320 84.4 62.8
8/31/26 - 2050 67.0 30.8 26 8.9 NW | 313 10.6 NW | 316 84.4 62.8
8/31/26 - 2040 67.3 30.4 25 8.8 WNW | 297 11.6 NW | 309 84.4 62.8
8/31/26 - 2030 68.1 30.9 25 10.6 NW | 304 15.6 WNW | 302 84.4 62.8
8/31/26 - 2020 68.8 31.1 25 11.4 NW | 306 16.8 WNW | 298 84.4 62.8
8/31/26 - 2010 69.0 31.1 24 9.8 NW | 307 14.2 NW | 313 84.4 62.8
8/31/26 - 2000 69.6 31.5 24 10.5 NW | 307 14.8 NW | 308 84.4 62.8
8/31/26 - 1950 69.8 32.6 25 9.7 NW | 309 14.0 NW | 311 84.4 62.8
8/31/26 - 1940 71.0 32.3 24 13.2 WNW | 282 18.5 W | 264 84.4 62.8
8/31/26 - 1930 71.6 33.9 25 13.4 W | 277 18.6 WNW | 285 84.4 62.8
8/31/26 - 1920 72.1 34.0 25 12.3 W | 277 17.8 W | 272 84.4 62.8
8/31/26 - 1910 72.9 33.7 24 11.4 W | 279 15.8 W | 274 84.4 62.8
8/31/26 - 1900 73.9 34.2 23 11.6 W | 281 15.9 W | 277 84.4 62.8
8/31/26 - 1850 74.7 35.1 24 14.0 WNW | 288 19.6 NW | 306 84.4 62.8
8/31/26 - 1840 75.1 36.3 24 15.2 WNW | 285 23.4 W | 280 84.4 62.8
8/31/26 - 1830 75.5 36.2 24 16.8 W | 279 24.2 WNW | 285 84.4 62.8
8/31/26 - 1820 76.0 36.9 24 18.8 WNW | 286 24.7 WNW | 292 84.4 62.8
8/31/26 - 1810 76.7 38.4 25 18.0 WNW | 293 24.3 WNW | 292 84.4 62.8
8/31/26 - 1800 77.0 39.1 26 18.3 WNW | 293 25.3 WNW | 296 84.4 62.8
8/31/26 - 1750 77.5 39.0 25 18.4 WNW | 298 27.0 WNW | 291 84.4 62.8
8/31/26 - 1740 78.1 39.9 25 18.5 WNW | 296 27.5 WNW | 294 84.4 62.8
8/31/26 - 1730 79.0 41.3 26 15.4 WNW | 286 23.6 WNW | 300 84.4 62.8
8/31/26 - 1720 78.5 41.9 27 17.7 WNW | 299 26.8 WNW | 301 84.4 62.8
8/31/26 - 1710 78.6 43.4 29 17.9 WNW | 294 25.9 WNW | 293 84.4 62.8
8/31/26 - 1700 79.2 45.1 30 17.3 WNW | 287 28.3 WNW | 296 84.4 62.8
8/31/26 - 1650 79.4 45.6 30 16.8 WNW | 288 25.7 WNW | 293 84.4 62.8
8/31/26 - 1640 79.5 46.3 31 17.9 WNW | 293 25.7 WNW | 290 84.4 62.8
8/31/26 - 1630 79.7 48.6 34 17.5 W | 281 27.3 WNW | 292 84.4 62.8
8/31/26 - 1620 79.7 49.6 35 17.9 WNW | 291 25.2 WNW | 303 84.4 62.8
8/31/26 - 1610 80.5 49.8 34 18.0 WNW | 283 27.5 W | 276 84.4 62.8
8/31/26 - 1600 80.4 50.2 35 16.9 WNW | 287 27.6 WNW | 284 84.4 62.8
8/31/26 - 1550 81.0 50.4 34 17.2 W | 277 27.4 W | 277 84.4 62.8
8/31/26 - 1540 81.3 49.9 34 15.1 W | 279 25.8 WNW | 301 84.4 62.8
8/31/26 - 1530 80.9 49.2 33 16.2 W | 280 24.8 W | 270 84.4 62.8
8/31/26 - 1520 81.6 48.7 32 15.2 WNW | 287 23.4 WNW | 290 84.4 62.8
8/31/26 - 1510 81.8 47.9 31 16.0 W | 277 27.6 WNW | 286 84.4 62.8
8/31/26 - 1500 82.2 47.4 30 15.1 WNW | 282 22.3 WSW | 251 84.4 62.8
8/31/26 - 1450 81.5 46.8 30 16.8 WNW | 295 25.8 WNW | 295 84.4 62.8
8/31/26 - 1440 80.9 46.4 30 16.8 WNW | 291 26.2 WNW | 293 84.4 62.8
8/31/26 - 1430 81.6 46.4 29 17.4 WNW | 292 27.2 W | 274 84.4 62.8
8/31/26 - 1420 82.0 46.3 29 15.8 WNW | 292 28.2 W | 274 84.4 62.8
8/31/26 - 1410 81.8 46.3 29 14.6 W | 279 27.7 WNW | 283 84.4 62.8
8/31/26 - 1400 81.9 46.2 29 14.7 WNW | 292 24.2 WNW | 300 84.4 62.8
8/31/26 - 1350 82.5 46.1 28 12.7 WNW | 289 23.1 WNW | 283 84.4 62.8
8/31/26 - 1340 81.7 46.0 29 12.0 WNW | 300 21.5 WNW | 292 84.4 62.8
8/31/26 - 1330 83.0 46.3 28 12.0 W | 274 23.3 WNW | 303 84.4 62.8
8/31/26 - 1320 81.8 46.5 29 11.9 WNW | 286 18.8 WSW | 253 82.8 62.8
8/31/26 - 1310 81.0 46.3 30 12.5 WNW | 293 20.9 WNW | 299 82.7 62.8
8/31/26 - 1300 80.9 46.9 30 13.9 WNW | 292 23.4 WNW | 302 82.7 62.8
8/31/26 - 1250 80.5 47.3 31 13.9 WNW | 299 22.4 NW | 307 81.9 62.8
Max 83.0 50.4 35 18.8 - 28.3 - 84.4 63.7
Avg 71.3 34.5 26 12.5 - 17.8 - - -
Min 62.6 22.8 17 6.5 - 7.8 - 64.1 62.4